Time;durP1;ratioP1;P1;durP2;ratioP2;P2;SDS_P1;SDS_P2;PMS_P1;PMS_P2;Temp;Humidity;BMP_temperature;BMP_pressure;BME280_temperature;BME280_humidity;BME280_pressure;Samples;Min_cycle;Max_cycle;Signal;HPM_P1;HPM_P2
2022/06/23 00:00:28;;;;;;;4.57;1.80;;;;;;;20.85;42.61;96036.06;4995016;28;20054;-61
2022/06/23 00:02:56;;;;;;;7.47;1.92;;;;;;;20.81;43.12;96045.28;4994849;28;20077;-61
2022/06/23 00:05:27;;;;;;;4.38;1.85;;;;;;;20.74;43.31;96050.28;4994736;28;20082;-61
2022/06/23 00:07:57;;;;;;;7.03;1.80;;;;;;;20.70;43.34;96055.03;4994736;28;20050;-61
2022/06/23 00:10:28;;;;;;;4.43;1.70;;;;;;;20.58;43.55;96064.91;4994780;28;20054;-61
2022/06/23 00:12:56;;;;;;;3.65;1.80;;;;;;;20.35;43.62;96066.06;4994655;28;20358;-61
2022/06/23 00:15:29;;;;;;;6.05;2.00;;;;;;;20.16;42.50;96056.97;4994683;28;20133;-61
2022/06/23 00:18:00;;;;;;;4.63;1.98;;;;;;;20.11;42.20;96045.94;4994473;28;20046;-61
2022/06/23 00:20:32;;;;;;;6.47;2.25;;;;;;;20.07;41.89;96048.00;4994394;28;20054;-60
2022/06/23 00:23:13;;;;;;;4.13;1.80;;;;;;;20.06;42.07;96047.16;4994413;28;20535;-61
2022/06/23 00:25:45;;;;;;;4.15;2.00;;;;;;;20.03;42.30;96039.47;4994374;28;20104;-60
2022/06/23 00:28:19;;;;;;;2.53;1.70;;;;;;;19.99;42.02;96022.09;4994487;28;20042;-61
2022/06/23 00:30:53;;;;;;;6.97;2.10;;;;;;;19.95;42.24;96026.81;4993995;28;20058;-60
2022/06/23 00:33:22;;;;;;;6.03;2.30;;;;;;;19.99;42.51;96029.19;4994262;28;20074;-60
2022/06/23 00:35:51;;;;;;;4.28;2.15;;;;;;;19.99;42.41;96034.50;4994258;28;20120;-60
2022/06/23 00:38:26;;;;;;;2.95;1.73;;;;;;;20.01;42.42;96032.59;4994063;28;20042;-61
2022/06/23 00:40:57;;;;;;;9.70;2.53;;;;;;;20.01;42.86;96044.03;4994107;28;20188;-60
2022/06/23 00:43:25;;;;;;;7.88;2.13;;;;;;;20.04;42.75;96037.63;4994045;28;20572;-61
2022/06/23 00:45:56;;;;;;;6.38;2.10;;;;;;;20.04;41.81;96037.63;4994354;28;20043;-61
2022/06/23 00:48:27;;;;;;;6.00;1.80;;;;;;;20.13;41.67;96026.25;4994191;28;20133;-61
2022/06/23 00:51:03;;;;;;;5.78;2.22;;;;;;;20.21;41.37;96038.88;4994132;28;20049;-61
2022/06/23 00:53:34;;;;;;;3.83;2.08;;;;;;;20.29;41.56;96040.88;4993920;28;20050;-61
2022/06/23 00:56:15;;;;;;;3.38;1.70;;;;;;;20.36;40.89;96030.56;4994035;28;20444;-60
2022/06/23 00:58:47;;;;;;;;;;;;;;;20.44;41.03;96031.56;4994435;28;20046;-61
2022/06/23 01:01:19;;;;;;;10.80;1.85;;;;;;;20.49;40.51;96019.69;4993873;28;20364;-61
2022/06/23 01:03:56;;;;;;;5.40;1.90;;;;;;;20.50;40.83;96029.38;4993910;28;20050;-60
2022/06/23 01:06:31;;;;;;;8.73;2.13;;;;;;;20.50;40.88;96034.69;4993787;28;20046;-61
2022/06/23 01:09:02;;;;;;;6.75;2.30;;;;;;;20.49;41.61;96035.63;4993840;28;20051;-61
2022/06/23 01:11:38;;;;;;;4.88;2.13;;;;;;;20.45;41.30;96032.41;4994001;28;20054;-60
2022/06/23 01:14:16;;;;;;;4.20;1.70;;;;;;;20.47;41.61;96026.97;4993684;28;20085;-61
2022/06/23 01:16:48;;;;;;;3.35;2.03;;;;;;;20.53;41.29;96029.94;4993652;28;20130;-61
2022/06/23 01:19:48;;;;;;;5.57;1.80;;;;;;;20.58;41.62;96017.09;4993963;28;20055;-61
2022/06/23 01:22:27;;;;;;;3.00;2.03;;;;;;;20.60;41.47;96018.78;4988968;28;20046;-61
2022/06/23 01:25:05;;;;;;;6.63;2.00;;;;;;;20.55;41.39;96033.31;4993538;28;20047;-61
2022/06/23 01:27:57;;;;;;;4.55;1.85;;;;;;;20.57;42.48;96025.19;4993925;28;20078;-60
2022/06/23 01:30:29;;;;;;;4.00;1.90;;;;;;;20.47;42.36;96022.53;4996785;28;20081;-61
2022/06/23 01:33:06;;;;;;;2.33;1.70;;;;;;;20.38;42.71;96015.34;4997685;28;20051;-61
2022/06/23 01:35:41;;;;;;;8.15;1.63;;;;;;;20.29;43.35;96006.34;4997487;28;20042;-61
2022/06/23 01:38:15;;;;;;;3.38;1.50;;;;;;;20.20;43.04;96023.91;4997496;28;20050;-61
2022/06/23 01:40:48;;;;;;;2.55;1.73;;;;;;;20.06;43.09;96044.50;4997341;28;20129;-60
2022/06/23 01:43:20;;;;;;;3.67;1.98;;;;;;;20.01;43.69;96040.53;4997429;28;20093;-61
2022/06/23 01:45:55;;;;;;;3.45;1.73;;;;;;;19.89;44.60;96011.41;4997352;28;20069;-60
2022/06/23 01:51:19;;;;;;;2.83;2.10;;;;;;;19.53;45.70;96013.50;4997133;28;20512;-61
2022/06/23 01:53:46;;;;;;;7.85;1.60;;;;;;;19.53;44.90;96018.81;4997161;28;20082;-60
2022/06/23 01:56:26;;;;;;;4.80;1.58;;;;;;;19.52;45.25;96014.47;4997241;28;20471;-61
2022/06/23 01:59:04;;;;;;;3.25;1.58;;;;;;;19.47;45.69;96019.34;4997335;28;20053;-61
2022/06/23 02:01:38;;;;;;;3.33;1.95;;;;;;;19.37;46.27;96029.84;4997102;28;20058;-61
2022/06/23 02:04:14;;;;;;;7.30;1.98;;;;;;;19.24;46.38;96022.06;4997070;28;20046;-60
2022/06/23 02:06:48;;;;;;;7.30;1.63;;;;;;;19.11;47.20;96017.75;4997085;28;20050;-60
2022/06/23 02:09:23;;;;;;;1.63;1.42;;;;;;;19.06;46.80;96020.72;4996979;28;20084;-61
2022/06/23 02:11:52;;;;;;;5.13;1.52;;;;;;;18.93;48.31;96020.88;4996915;28;20054;-61
2022/06/23 02:14:43;;;;;;;4.72;1.67;;;;;;;18.85;47.74;96025.97;4996855;28;20046;-61
2022/06/23 02:17:12;;;;;;;;;;;;;;;18.85;47.35;96007.41;4997123;28;20054;-60
2022/06/23 02:19:44;;;;;;;3.85;1.40;;;;;;;18.61;49.05;96015.50;4996800;28;19976;-61
2022/06/23 02:22:15;;;;;;;2.97;1.52;;;;;;;18.50;49.22;96016.34;4996595;28;20090;-61
2022/06/23 02:24:50;;;;;;;4.65;1.80;;;;;;;18.47;50.11;96020.09;4996613;28;20054;-60
2022/06/23 02:27:22;;;;;;;4.03;1.48;;;;;;;18.40;49.97;96010.94;4996743;28;20050;-60
2022/06/23 02:29:56;;;;;;;3.03;1.80;;;;;;;18.31;50.27;96005.38;4996306;28;20096;-60
2022/06/23 02:32:31;;;;;;;5.72;1.80;;;;;;;18.22;50.93;96000.84;4996538;28;20066;-61
2022/06/23 02:35:03;;;;;;;4.60;1.88;;;;;;;18.14;51.93;96024.38;4996470;28;20104;-61
2022/06/23 02:38:07;;;;;;;3.80;1.60;;;;;;;18.10;50.79;96030.84;4996710;28;20480;-60
2022/06/23 02:40:41;;;;;;;4.22;1.80;;;;;;;17.98;50.41;96017.63;4974622;28;20054;-60
2022/06/23 02:43:25;;;;;;;3.20;1.80;;;;;;;17.93;51.59;96033.84;4974953;28;20054;-60
2022/06/23 02:46:21;;;;;;;3.95;1.83;;;;;;;17.91;51.36;96033.09;4988186;28;20453;-60
2022/06/23 02:49:33;;;;;;;2.63;1.50;;;;;;;17.89;52.61;96027.09;4996269;28;20050;-61
2022/06/23 02:52:31;;;;;;;7.13;1.80;;;;;;;17.83;53.47;96037.28;4996114;28;20100;-60
2022/06/23 02:55:16;;;;;;;3.13;1.38;;;;;;;17.76;53.01;96037.75;4996081;28;20054;-61
2022/06/23 02:57:48;;;;;;;2.55;1.60;;;;;;;17.68;54.70;96022.47;4995976;28;20058;-60
2022/06/23 03:00:20;;;;;;;1.83;1.58;;;;;;;17.58;53.63;96016.16;4996115;28;20047;-60
2022/06/23 03:03:07;;;;;;;3.90;1.65;;;;;;;17.48;52.58;96021.31;4995866;28;20431;-60
2022/06/23 03:05:45;;;;;;;3.58;1.50;;;;;;;17.37;52.85;96019.44;4995815;28;20081;-60
2022/06/23 03:08:21;;;;;;;3.92;1.50;;;;;;;17.29;51.55;96014.75;4995947;28;20082;-60
2022/06/23 03:10:54;;;;;;;3.08;1.50;;;;;;;17.23;51.79;96017.00;4995803;28;20078;-61
2022/06/23 03:13:30;;;;;;;1.40;1.30;;;;;;;17.26;52.80;96017.63;4995698;28;20052;-60
2022/06/23 03:16:10;;;;;;;3.97;1.17;;;;;;;17.27;53.18;96021.94;4995786;28;20050;-61
2022/06/23 03:18:47;;;;;;;2.47;1.35;;;;;;;17.27;52.62;96026.38;4995741;28;20077;-60
2022/06/23 03:21:21;;;;;;;1.92;1.48;;;;;;;17.22;52.59;96028.53;4995395;28;20506;-61
2022/06/23 03:23:54;;;;;;;3.63;1.35;;;;;;;17.17;51.09;96028.84;4995695;28;20085;-60
2022/06/23 03:26:28;;;;;;;3.10;1.52;;;;;;;17.31;51.62;96038.44;4995768;28;20050;-61
2022/06/23 03:28:59;;;;;;;2.03;1.35;;;;;;;17.42;53.55;96042.91;4995120;28;20500;-61
2022/06/23 03:31:30;;;;;;;4.82;1.70;;;;;;;17.53;55.18;96039.47;4995579;28;20046;-60
2022/06/23 03:34:05;;;;;;;7.43;1.92;;;;;;;17.60;54.46;96045.13;4995598;28;20050;-60
2022/06/23 03:36:39;;;;;;;1.70;1.40;;;;;;;17.51;55.07;96038.72;4995321;28;20056;-60
2022/06/23 03:42:09;;;;;;;4.20;1.33;;;;;;;17.35;56.05;96046.97;4995227;28;20128;-60
2022/06/23 03:44:49;;;;;;;4.55;1.73;;;;;;;17.33;56.94;96044.44;4995096;28;20125;-60
2022/06/23 03:47:22;;;;;;;2.90;1.50;;;;;;;17.25;57.18;96049.44;4995216;28;20051;-60
2022/06/23 03:49:54;;;;;;;2.88;1.77;;;;;;;17.16;56.78;96057.06;4995133;28;20295;-60
2022/06/23 03:52:38;;;;;;;2.42;1.70;;;;;;;17.21;56.54;96071.72;4994533;28;20058;-60
2022/06/23 03:55:18;;;;;;;4.05;1.25;;;;;;;17.26;56.01;96078.41;4995276;28;20054;-61
2022/06/23 03:57:53;;;;;;;2.83;1.52;;;;;;;17.32;56.29;96066.53;4994967;28;20057;-60
2022/06/23 04:00:30;;;;;;;5.13;1.40;;;;;;;17.37;55.07;96074.97;4994863;28;20444;-60
2022/06/23 04:03:17;;;;;;;2.10;1.67;;;;;;;17.50;53.26;96077.56;4994870;28;20052;-60
2022/06/23 04:06:21;;;;;;;5.72;1.90;;;;;;;17.64;54.73;96084.47;4994875;28;20116;-60
2022/06/23 04:09:04;;;;;;;6.30;1.83;;;;;;;17.72;55.90;96083.91;4994697;28;20133;-61
2022/06/23 04:11:46;;;;;;;5.22;1.58;;;;;;;17.83;55.64;96090.19;4994725;28;20096;-60
2022/06/23 04:14:20;;;;;;;3.38;1.20;;;;;;;17.87;55.30;96084.56;4994587;28;20050;-60
2022/06/23 04:16:51;;;;;;;5.38;1.60;;;;;;;17.96;56.37;96087.44;4994512;28;20503;-60
2022/06/23 04:19:23;;;;;;;2.83;1.58;;;;;;;18.10;57.47;96086.41;4994597;28;20085;-60
2022/06/23 04:21:57;;;;;;;3.28;1.55;;;;;;;18.22;56.29;96085.53;4994490;28;20051;-60
2022/06/23 04:24:27;;;;;;;3.47;1.50;;;;;;;18.45;54.87;96080.25;4994430;28;20053;-61
2022/06/23 04:27:04;;;;;;;4.60;1.45;;;;;;;18.78;54.01;96075.09;4994536;28;20459;-61
2022/06/23 04:29:36;;;;;;;2.65;1.67;;;;;;;19.23;54.19;96081.34;4994181;28;20073;-61
2022/06/23 04:32:08;;;;;;;8.05;1.40;;;;;;;19.60;54.60;96078.34;4994183;28;20054;-61
2022/06/23 04:34:43;;;;;;;4.80;1.27;;;;;;;19.85;54.88;96092.25;4994271;28;20116;-61
2022/06/23 04:37:21;;;;;;;2.97;1.30;;;;;;;20.04;55.87;96096.88;4994235;28;20058;-61
2022/06/23 04:39:58;;;;;;;9.30;1.50;;;;;;;20.19;54.47;96104.50;4994222;28;20579;-60
2022/06/23 04:42:27;;;;;;;2.67;1.55;;;;;;;20.29;56.78;96094.81;4994103;28;20090;-60
2022/06/23 04:45:29;;;;;;;3.03;1.50;;;;;;;20.33;55.50;96090.09;4994137;28;20500;-61
2022/06/23 04:47:58;;;;;;;2.38;1.30;;;;;;;20.42;53.87;96099.94;4994120;28;20042;-61
2022/06/23 04:50:39;;;;;;;2.25;1.33;;;;;;;20.48;55.44;96095.91;4993938;28;20133;-60
2022/06/23 04:53:08;;;;;;;4.65;1.48;;;;;;;20.58;55.17;96096.78;4993876;28;20054;-61
2022/06/23 04:55:37;;;;;;;4.60;1.88;;;;;;;20.67;54.56;96095.16;4994019;28;20134;-61
2022/06/23 04:58:12;;;;;;;4.28;1.80;;;;;;;20.82;53.49;96089.47;4993879;28;20054;-61
2022/06/23 05:00:41;;;;;;;3.13;1.77;;;;;;;20.90;52.43;96097.69;4994137;28;20480;-61
2022/06/23 05:03:18;;;;;;;3.33;1.58;;;;;;;21.05;53.46;96094.63;4993136;28;20050;-61
2022/06/23 05:05:55;;;;;;;4.57;1.30;;;;;;;21.01;51.28;96090.56;4993633;28;20412;-61
2022/06/23 05:08:27;;;;;;;4.00;1.88;;;;;;;20.91;50.76;96107.31;4993894;28;20085;-60
2022/06/23 05:11:02;;;;;;;1.73;1.63;;;;;;;20.84;51.42;96109.63;4993733;28;20485;-61
2022/06/23 05:13:36;;;;;;;2.38;1.70;;;;;;;20.69;52.10;96100.34;4993833;28;20504;-61
2022/06/23 05:16:08;;;;;;;7.72;1.88;;;;;;;20.58;53.58;96111.88;4993791;28;20420;-61
2022/06/23 05:18:41;;;;;;;4.65;1.80;;;;;;;20.56;53.75;96130.59;4993638;28;20101;-61
2022/06/23 05:21:11;;;;;;;2.45;1.83;;;;;;;20.54;54.62;96123.75;4993616;28;20047;-62
2022/06/23 05:23:43;;;;;;;3.13;1.70;;;;;;;20.62;55.23;96131.88;4993787;28;20085;-61
2022/06/23 05:26:18;;;;;;;4.22;1.90;;;;;;;20.67;58.41;96116.41;4993801;28;20054;-61
2022/06/23 05:28:50;;;;;;;2.22;1.80;;;;;;;20.70;57.71;96109.97;4993466;28;20143;-61
2022/06/23 05:31:23;;;;;;;2.40;2.00;;;;;;;20.77;58.35;96115.63;4993608;28;20068;-60
2022/06/23 05:33:54;;;;;;;3.33;1.85;;;;;;;20.80;56.91;96115.38;4993685;28;20054;-61
2022/06/23 05:36:25;;;;;;;2.63;1.70;;;;;;;20.83;59.04;96121.22;4993698;28;20058;-61
2022/06/23 05:38:56;;;;;;;2.63;2.00;;;;;;;20.84;57.78;96122.91;4993670;28;20547;-61
2022/06/23 05:41:31;;;;;;;2.22;1.73;;;;;;;20.89;57.49;96129.66;4993753;28;20057;-60
2022/06/23 05:44:00;;;;;;;7.18;1.95;;;;;;;20.89;56.66;96134.97;4993276;28;20077;-60
2022/06/23 05:46:30;;;;;;;2.25;1.40;;;;;;;20.93;58.29;96133.75;4993478;28;20133;-60
2022/06/23 05:49:00;;;;;;;3.25;1.77;;;;;;;20.72;57.53;96134.63;4993462;28;20130;-60
2022/06/23 05:51:34;;;;;;;3.67;1.75;;;;;;;20.58;57.68;96130.47;4993437;28;20057;-61
2022/06/23 05:54:08;;;;;;;2.95;1.85;;;;;;;20.65;59.19;96130.81;4993384;28;20145;-61
2022/06/23 05:56:44;;;;;;;4.50;1.70;;;;;;;20.71;57.99;96132.94;4993346;28;20047;-61
2022/06/23 05:59:16;;;;;;;4.10;1.80;;;;;;;20.74;58.66;96137.97;4993323;28;20109;-61
2022/06/23 06:01:51;;;;;;;3.00;1.55;;;;;;;20.79;58.63;96141.09;4993381;28;20444;-61
2022/06/23 06:04:23;;;;;;;3.08;2.00;;;;;;;20.83;59.23;96128.38;4993526;28;20108;-60
2022/06/23 06:06:51;;;;;;;6.50;2.00;;;;;;;20.86;60.63;96122.78;4993341;28;20054;-61
2022/06/23 06:09:36;;;;;;;7.60;1.75;;;;;;;20.95;60.82;96121.19;4993291;28;20412;-61
2022/06/23 06:12:09;;;;;;;4.10;1.58;;;;;;;21.14;60.94;96128.41;4993161;28;20507;-61
2022/06/23 06:14:42;;;;;;;4.57;1.83;;;;;;;21.15;58.42;96132.72;4993435;28;20096;-61
2022/06/23 06:17:19;;;;;;;2.67;1.65;;;;;;;21.16;56.99;96130.94;4996676;28;20065;-61
2022/06/23 06:19:48;;;;;;;3.83;1.67;;;;;;;21.12;56.73;96122.38;4996800;28;20050;-61
2022/06/23 06:22:31;;;;;;;3.47;1.83;;;;;;;21.14;56.59;96125.75;4996679;28;20054;-60
2022/06/23 06:25:02;;;;;;;2.25;1.45;;;;;;;21.12;55.47;96129.50;4996941;28;20046;-60
2022/06/23 06:27:33;;;;;;;5.72;1.70;;;;;;;21.11;55.47;96138.44;4996809;28;20046;-60
2022/06/23 06:30:02;;;;;;;2.90;1.30;;;;;;;21.10;55.97;96132.28;4996415;28;20047;-61
2022/06/23 06:32:34;;;;;;;2.72;1.60;;;;;;;21.00;57.50;96129.59;4996652;28;20053;-61
2022/06/23 06:35:14;;;;;;;2.28;1.55;;;;;;;21.03;59.34;96131.13;4996472;28;20081;-61
2022/06/23 06:37:44;;;;;;;2.55;1.65;;;;;;;20.98;58.41;96139.50;4996756;28;20046;-60
2022/06/23 06:40:13;;;;;;;3.88;1.70;;;;;;;20.96;58.69;96144.13;4996585;28;20086;-60
2022/06/23 06:42:46;;;;;;;2.28;1.73;;;;;;;20.87;58.70;96148.41;4996326;28;20418;-61
2022/06/23 06:45:18;;;;;;;7.35;1.90;;;;;;;20.78;62.56;96166.00;4996286;28;20096;-60
2022/06/23 06:47:46;;;;;;;3.70;1.92;;;;;;;20.73;62.80;96170.84;4996291;28;20058;-61
2022/06/23 06:50:25;;;;;;;3.20;1.63;;;;;;;20.69;61.75;96175.59;4996253;28;20097;-60
2022/06/23 06:52:53;;;;;;;3.47;1.40;;;;;;;20.71;62.50;96180.78;4996441;28;20611;-61
2022/06/23 06:55:26;;;;;;;5.25;1.90;;;;;;;20.78;64.66;96191.72;4996390;28;20055;-60
2022/06/23 06:57:58;;;;;;;3.17;1.70;;;;;;;20.70;63.62;96201.19;4996151;28;20085;-61
2022/06/23 07:00:29;;;;;;;3.25;1.80;;;;;;;20.73;64.90;96220.47;4996079;28;20050;-61
2022/06/23 07:03:00;;;;;;;4.75;1.80;;;;;;;20.75;65.94;96227.38;4996031;28;20058;-61
2022/06/23 07:05:34;;;;;;;3.35;1.88;;;;;;;20.73;64.80;96239.94;4996300;28;20046;-61
2022/06/23 07:08:06;;;;;;;2.30;1.67;;;;;;;20.64;64.22;96259.28;4996058;28;20108;-60
2022/06/23 07:10:40;;;;;;;8.70;1.60;;;;;;;20.45;61.35;96263.50;4995934;28;20046;-61
2022/06/23 07:13:13;;;;;;;4.00;2.00;;;;;;;20.47;63.13;96282.81;4995782;28;20050;-60
2022/06/23 07:15:47;;;;;;;3.00;1.70;;;;;;;20.49;63.27;96291.47;4995915;28;20165;-61
2022/06/23 07:18:21;;;;;;;4.45;1.90;;;;;;;20.39;62.57;96298.53;4996097;28;20084;-61
2022/06/23 07:21:02;;;;;;;6.75;1.70;;;;;;;20.26;58.73;96296.03;4995841;28;20389;-61
2022/06/23 07:23:33;;;;;;;;;;;;;;;20.26;58.20;96301.34;4996221;28;20077;-61
2022/06/23 07:26:20;;;;;;;3.50;1.98;;;;;;;20.32;60.42;96319.44;4995336;28;20345;-61
2022/06/23 07:28:53;;;;;;;10.57;1.80;;;;;;;20.36;56.59;96318.22;4995490;28;20050;-61
2022/06/23 07:31:25;;;;;;;5.97;2.10;;;;;;;20.25;52.52;96320.88;4996499;28;20052;-60
2022/06/23 07:33:59;;;;;;;3.10;1.55;;;;;;;20.31;53.62;96323.03;4995442;28;20104;-60
2022/06/23 07:36:32;;;;;;;5.10;1.67;;;;;;;20.24;55.49;96324.50;4995515;28;20101;-61
2022/06/23 07:39:06;;;;;;;3.92;1.83;;;;;;;20.13;52.60;96325.38;4995487;28;20130;-60
2022/06/23 07:41:38;;;;;;;5.57;1.90;;;;;;;20.20;53.57;96329.25;4997640;28;20050;-61
2022/06/23 07:44:12;;;;;;;3.08;1.45;;;;;;;20.15;50.87;96323.44;4995899;28;20050;-60
2022/06/23 07:46:40;;;;;;;6.95;1.92;;;;;;;20.10;54.69;96302.56;4995146;28;20047;-60
2022/06/23 07:49:08;;;;;;;3.88;2.30;;;;;;;20.00;52.95;96302.44;4995642;28;20077;-60
2022/06/23 07:51:37;;;;;;;4.97;2.13;;;;;;;19.91;56.09;96297.88;4995379;28;20504;-61
2022/06/23 07:54:07;;;;;;;5.38;2.17;;;;;;;19.91;58.08;96252.75;4995150;28;20046;-60
2022/06/23 07:56:37;;;;;;;4.80;2.40;;;;;;;19.76;58.68;96223.84;4995343;28;20050;-60
2022/06/23 07:59:10;;;;;;;4.35;2.08;;;;;;;19.63;57.61;96209.88;4995053;28;20054;-60
2022/06/23 08:01:43;;;;;;;5.40;2.40;;;;;;;19.65;60.45;96221.19;4994894;28;20471;-60
2022/06/23 08:04:19;;;;;;;3.67;2.00;;;;;;;19.74;60.73;96223.13;4994754;28;20477;-60
2022/06/23 08:06:48;;;;;;;4.28;2.10;;;;;;;19.70;61.34;96233.16;4994826;28;20055;-61
2022/06/23 08:09:20;;;;;;;6.07;2.22;;;;;;;19.69;63.34;96222.66;4994695;28;20047;-60
2022/06/23 08:14:39;;;;;;;5.65;2.30;;;;;;;19.47;63.63;96189.88;4995021;28;20061;-60
2022/06/23 08:17:11;;;;;;;7.93;2.55;;;;;;;19.44;63.23;96175.06;4994610;28;20088;-60
2022/06/23 08:19:45;;;;;;;4.53;2.20;;;;;;;19.36;62.22;96187.25;4994501;28;20485;-60
2022/06/23 08:22:15;;;;;;;8.10;2.30;;;;;;;19.30;62.80;96197.34;4994194;28;20100;-60
2022/06/23 08:35:26;;;;;;;5.30;2.15;;;;;;;19.81;64.00;96186.34;5070362;28;20380;-62
2022/06/23 08:37:59;;;;;;;3.83;2.22;;;;;;;19.65;64.80;96179.59;5070195;28;20049;-62
2022/06/23 08:40:37;;;;;;;3.45;2.45;;;;;;;19.66;67.41;96175.97;5070206;28;20045;-62
2022/06/23 08:43:15;;;;;;;2.70;2.20;;;;;;;19.70;66.90;96197.81;5069999;28;20045;-62
2022/06/23 08:45:49;;;;;;;6.90;2.20;;;;;;;19.70;67.74;96203.97;5070128;28;20052;-62
2022/06/23 08:48:23;;;;;;;2.92;2.22;;;;;;;19.71;69.29;96215.41;5070092;28;20053;-62
2022/06/23 08:51:00;;;;;;;2.70;2.15;;;;;;;19.56;66.27;96218.31;5069965;28;20055;-62
2022/06/23 08:53:36;;;;;;;4.25;2.50;;;;;;;19.47;67.64;96244.75;5069879;28;20071;-62
2022/06/23 08:56:10;;;;;;;4.55;2.58;;;;;;;19.51;69.97;96252.31;5069842;28;20098;-62
2022/06/23 08:58:44;;;;;;;5.05;2.28;;;;;;;19.57;70.28;96273.06;5069805;28;20094;-62
2022/06/23 09:01:16;;;;;;;3.60;2.35;;;;;;;19.59;70.40;96264.16;5069785;28;20083;-62
2022/06/23 09:03:52;;;;;;;5.57;2.65;;;;;;;19.60;70.94;96258.72;5069639;28;20045;-62
2022/06/23 09:06:36;;;;;;;4.93;3.22;;;;;;;19.67;71.43;96261.72;5069748;28;20081;-61
2022/06/23 09:09:16;;;;;;;6.07;2.65;;;;;;;19.76;71.09;96253.03;5069599;28;20087;-62
2022/06/23 09:11:53;;;;;;;5.25;2.55;;;;;;;19.79;71.52;96249.28;5069560;28;20055;-62
2022/06/23 09:14:44;;;;;;;5.97;2.35;;;;;;;19.83;69.26;96243.59;5069429;28;20171;-62
2022/06/23 09:17:31;;;;;;;6.57;2.53;;;;;;;19.94;69.06;96215.34;5069403;28;20504;-62
2022/06/23 09:20:14;;;;;;;4.88;2.35;;;;;;;20.02;69.57;96198.84;5069395;28;20494;-62
2022/06/23 09:23:13;;;;;;;4.55;2.03;;;;;;;19.94;67.23;96204.75;5069235;28;20142;-62
2022/06/23 09:25:52;;;;;;;8.48;2.60;;;;;;;19.90;67.26;96206.78;5069250;28;20080;-62
2022/06/23 09:28:25;;;;;;;5.28;2.70;;;;;;;19.95;69.41;96179.88;5069149;28;20048;-62
2022/06/23 09:31:07;;;;;;;3.50;2.40;;;;;;;19.86;69.11;96205.34;5069172;28;20135;-62
2022/06/23 09:33:45;;;;;;;5.43;2.70;;;;;;;19.91;69.85;96205.84;5068714;28;20401;-62
2022/06/23 09:36:43;;;;;;;4.75;1.90;;;;;;;20.06;69.48;96202.94;5056066;28;20056;-62
2022/06/23 09:39:33;;;;;;;3.08;2.38;;;;;;;20.18;65.95;96207.22;5041228;28;20451;-62
2022/06/23 09:42:19;;;;;;;3.00;2.00;;;;;;;20.28;63.83;96228.53;5012250;28;20080;-62
2022/06/23 09:45:31;;;;;;;4.72;2.35;;;;;;;20.35;68.08;96228.91;5055557;28;20069;-62
2022/06/23 09:48:27;;;;;;;5.05;2.55;;;;;;;20.51;71.20;96233.78;5055690;28;20098;-62
2022/06/23 09:51:16;;;;;;;7.63;2.47;;;;;;;20.62;71.05;96232.84;5055613;28;20049;-62
2022/06/23 09:54:30;;;;;;;3.17;2.40;;;;;;;20.82;69.28;96238.31;5055485;28;20049;-62
2022/06/23 09:57:19;;;;;;;5.28;2.63;;;;;;;20.95;67.57;96241.63;5055496;28;20052;-62
2022/06/23 09:59:57;;;;;;;7.40;2.40;;;;;;;20.80;66.29;96235.78;5055407;28;20048;-62
2022/06/23 10:02:47;;;;;;;2.28;2.08;;;;;;;20.80;66.63;96213.69;5055335;28;20045;-62
2022/06/23 10:05:34;;;;;;;5.43;2.47;;;;;;;20.85;68.01;96200.84;5055272;28;20084;-62
2022/06/23 10:08:13;;;;;;;3.95;2.45;;;;;;;20.84;68.71;96199.97;5055202;28;20045;-61
2022/06/23 10:11:07;;;;;;;3.38;2.92;;;;;;;20.88;68.37;96189.09;5055376;28;20041;-62
2022/06/23 10:14:01;;;;;;;3.13;2.40;;;;;;;20.76;69.71;96188.31;5055177;28;20076;-62
2022/06/23 10:16:46;;;;;;;5.00;2.60;;;;;;;20.69;69.77;96196.84;5037388;28;20041;-62
2022/06/23 10:19:33;;;;;;;4.57;2.58;;;;;;;20.74;68.62;96200.91;5055083;28;20490;-62
2022/06/23 10:22:27;;;;;;;6.57;2.30;;;;;;;20.80;68.89;96206.53;5055090;28;20061;-61
2022/06/23 10:25:28;;;;;;;4.55;2.22;;;;;;;20.88;68.81;96220.97;5048438;28;20110;-61
2022/06/23 10:28:10;;;;;;;;;;;;;;;21.01;67.49;96229.63;5055333;28;20049;-61
2022/06/23 10:30:48;;;;;;;12.18;2.63;;;;;;;21.17;67.63;96233.63;5054840;28;19920;-62
2022/06/23 10:33:41;;;;;;;6.57;2.20;;;;;;;21.15;65.32;96214.31;5054580;28;20049;-62
2022/06/23 10:36:27;;;;;;;4.35;2.28;;;;;;;21.25;66.74;96206.38;5054756;28;20041;-62
2022/06/23 10:39:05;;;;;;;6.03;2.30;;;;;;;21.26;65.50;96198.28;5054654;28;20462;-62
2022/06/23 10:42:05;;;;;;;3.55;2.50;;;;;;;21.26;65.85;96198.28;5054666;28;20394;-62
2022/06/23 10:45:00;;;;;;;4.40;2.67;;;;;;;21.33;64.96;96194.09;5046561;28;20041;-61
2022/06/23 10:47:42;;;;;;;4.25;2.10;;;;;;;21.41;65.74;96195.25;5053589;28;20049;-62
2022/06/23 10:50:32;;;;;;;4.15;2.67;;;;;;;21.41;65.93;96204.09;5054422;28;20225;-62
2022/06/23 10:53:21;;;;;;;6.45;3.10;;;;;;;21.51;66.62;96200.59;5054456;28;20045;-62
2022/06/23 10:55:59;;;;;;;6.18;2.95;;;;;;;21.58;63.24;96205.25;5054431;28;20045;-62
2022/06/23 10:59:06;;;;;;;4.65;2.72;;;;;;;21.73;65.67;96196.03;5054251;28;20045;-62
2022/06/23 11:01:59;;;;;;;3.47;2.80;;;;;;;21.95;64.58;96193.16;5042249;28;20399;-62
2022/06/23 11:04:51;;;;;;;6.13;2.88;;;;;;;22.16;63.27;96172.72;5051113;28;20589;-62
2022/06/23 11:07:36;;;;;;;7.55;2.80;;;;;;;22.21;61.71;96181.09;5054199;28;20057;-62
2022/06/23 11:10:26;;;;;;;6.03;2.97;;;;;;;22.31;62.97;96178.47;5054191;28;20071;-62
2022/06/23 11:13:06;;;;;;;7.93;3.23;;;;;;;22.42;62.05;96185.44;5053666;28;20491;-62
2022/06/23 11:15:43;;;;;;;3.70;3.08;;;;;;;22.78;63.08;96180.38;5054036;28;20071;-62
2022/06/23 11:18:37;;;;;;;7.60;3.33;;;;;;;23.05;62.38;96175.25;5054013;28;20486;-62
2022/06/23 11:21:24;;;;;;;9.07;3.97;;;;;;;23.12;60.37;96179.03;5053867;28;20057;-62
2022/06/23 11:24:01;;;;;;;11.07;3.70;;;;;;;23.13;59.40;96178.03;5053701;28;20044;-62
2022/06/23 11:26:40;;;;;;;11.85;4.82;;;;;;;23.01;59.80;96181.84;5053703;28;20067;-62
2022/06/23 11:29:38;;;;;;;9.73;4.57;;;;;;;22.96;58.58;96179.63;5053765;28;20063;-61
2022/06/23 11:32:19;;;;;;;8.85;4.78;;;;;;;22.90;58.47;96175.72;5053670;28;20064;-62
2022/06/23 11:35:04;;;;;;;5.90;3.97;;;;;;;22.97;59.15;96182.16;5053454;28;20049;-61
2022/06/23 11:38:03;;;;;;;4.55;3.78;;;;;;;23.04;59.14;96174.41;5053537;28;20124;-62
2022/06/23 11:40:50;;;;;;;6.55;3.70;;;;;;;22.84;58.50;96182.47;5053473;28;20456;-61
2022/06/23 11:43:22;;;;;;;6.43;3.72;;;;;;;22.80;59.30;96181.09;5053443;28;20052;-62
2022/06/23 11:46:01;;;;;;;10.55;3.70;;;;;;;22.81;58.47;96181.91;5053338;28;20057;-62
2022/06/23 11:48:54;;;;;;;4.53;3.45;;;;;;;22.68;59.22;96191.06;5053307;28;20077;-62
2022/06/23 11:51:43;;;;;;;5.70;3.92;;;;;;;22.50;59.13;96179.41;5053302;28;20044;-62
2022/06/23 11:54:25;;;;;;;8.60;3.50;;;;;;;22.34;60.90;96179.00;5053214;28;20079;-62
2022/06/23 11:57:12;;;;;;;7.80;3.65;;;;;;;22.42;62.98;96188.09;5053191;28;20047;-62
2022/06/23 11:59:53;;;;;;;6.00;3.70;;;;;;;22.51;63.19;96184.59;5053187;28;20472;-62
2022/06/23 12:02:20;;;;;;;6.25;3.35;;;;;;;22.52;62.48;96172.13;5053235;28;20053;-62
2022/06/23 12:05:04;;;;;;;11.45;3.63;;;;;;;22.59;61.81;96174.13;5053074;28;20085;-62
2022/06/23 12:07:55;;;;;;;5.57;3.25;;;;;;;22.70;61.01;96174.94;5053103;28;20508;-62
2022/06/23 12:10:26;;;;;;;7.30;3.20;;;;;;;22.86;59.27;96174.34;5053019;28;20045;-62
2022/06/23 12:12:56;;;;;;;4.47;2.90;;;;;;;22.96;58.64;96166.28;5052991;28;20536;-62
2022/06/23 12:15:28;;;;;;;11.10;2.60;;;;;;;22.86;57.55;96171.66;5052963;28;20080;-62
2022/06/23 12:17:59;;;;;;;4.20;2.80;;;;;;;22.77;56.55;96162.72;5052895;28;20092;-62
2022/06/23 12:20:33;;;;;;;4.28;2.78;;;;;;;22.77;57.41;96168.03;5052956;28;20088;-62
2022/06/23 12:23:13;;;;;;;6.63;2.60;;;;;;;22.65;58.22;96167.38;5052898;28;20049;-62
2022/06/23 12:25:48;;;;;;;5.55;2.75;;;;;;;22.58;58.11;96161.75;5052939;28;20052;-62
2022/06/23 12:28:24;;;;;;;6.07;2.65;;;;;;;22.49;57.05;96154.63;5052806;28;20041;-62
2022/06/23 12:30:58;;;;;;;4.80;2.83;;;;;;;22.49;56.38;96162.59;5052832;28;20418;-62
2022/06/23 12:33:34;;;;;;;4.38;2.50;;;;;;;22.47;57.61;96162.75;5052471;28;20045;-62
2022/06/23 12:36:09;;;;;;;6.65;2.90;;;;;;;22.45;58.46;96166.50;5052779;28;20460;-60
2022/06/23 12:38:44;;;;;;;4.45;2.95;;;;;;;22.31;59.31;96167.81;5052759;28;20493;-61
2022/06/23 12:41:16;;;;;;;4.20;2.72;;;;;;;22.34;62.12;96162.19;5052739;28;20045;-61